Time;durP1;ratioP1;P1;durP2;ratioP2;P2;SDS_P1;SDS_P2;PMS_P1;PMS_P2;Temp;Humidity;BMP_temperature;BMP_pressure;BME280_temperature;BME280_humidity;BME280_pressure;Samples;Min_cycle;Max_cycle;Signal;HPM_P1;HPM_P2
2024/01/24 00:01:13;;;;;;;;;;;;;;;17.09;44.20;99559.41;10326866;28;815;-71
2024/01/24 00:06:09;;;;;;;;;;;;;;;17.07;43.93;99555.13;10328037;28;786;-71
2024/01/24 00:11:05;;;;;;;;;;;;;;;17.06;43.98;99567.44;10327629;28;803;-72
2024/01/24 00:16:00;;;;;;;;;;;;;;;17.03;44.05;99558.81;10325144;28;1898;-71
2024/01/24 00:20:56;;;;;;;;;;;;;;;17.02;44.13;99552.69;10326198;28;878;-71
2024/01/24 00:25:52;;;;;;;;;;;;;;;17.00;44.19;99543.13;10326437;28;1251;-71
2024/01/24 00:30:48;;;;;;;;;;;;;;;17.03;44.40;99530.72;10325945;28;909;-71
2024/01/24 00:35:44;;;;;;;;;;;;;;;16.98;44.18;99500.25;10327097;28;1909;-71
2024/01/24 00:40:40;;;;;;;;;;;;;;;17.00;44.16;99506.28;10326110;28;926;-72
2024/01/24 00:45:36;;;;;;;;;;;;;;;17.02;44.42;99505.28;10325952;28;755;-71
2024/01/24 00:50:32;;;;;;;;;;;;;;;16.98;44.56;99453.69;10325793;28;846;-71
2024/01/24 00:55:28;;;;;;;;;;;;;;;16.96;44.66;99473.13;10325590;28;1902;-71
2024/01/24 01:00:23;;;;;;;;;;;;;;;16.95;44.30;99509.13;10325169;28;1036;-72
2024/01/24 01:05:19;;;;;;;;;;;;;;;16.95;44.66;99497.72;10325496;28;1016;-71
2024/01/24 01:10:15;;;;;;;;;;;;;;;17.01;44.91;99489.56;10324822;28;842;-72
2024/01/24 01:15:11;;;;;;;;;;;;;;;16.98;45.12;99447.59;10324378;28;1957;-71
2024/01/24 01:20:09;;;;;;;;;;;;;;;16.94;45.06;99459.16;10325787;28;909;-71
2024/01/24 01:25:05;;;;;;;;;;;;;;;16.90;44.76;99462.84;10324796;28;1124;-72
2024/01/24 01:30:01;;;;;;;;;;;;;;;16.93;45.13;99468.84;10325675;28;790;-72
2024/01/24 01:34:57;;;;;;;;;;;;;;;16.91;45.05;99462.78;10324866;28;1950;-71
2024/01/24 01:39:53;;;;;;;;;;;;;;;16.92;45.22;99466.28;10325376;28;814;-71
2024/01/24 01:44:49;;;;;;;;;;;;;;;16.92;44.91;99461.00;10325360;28;921;-71
2024/01/24 01:49:45;;;;;;;;;;;;;;;16.86;45.10;99447.19;10324786;28;754;-71
2024/01/24 01:54:41;;;;;;;;;;;;;;;16.87;45.27;99426.97;10325130;28;1977;-72
2024/01/24 01:59:37;;;;;;;;;;;;;;;16.85;45.26;99428.84;10324404;28;894;-71
2024/01/24 02:04:32;;;;;;;;;;;;;;;16.82;45.02;99440.38;10324342;28;967;-71
2024/01/24 02:09:28;;;;;;;;;;;;;;;16.80;45.04;99407.13;10324866;28;763;-71
2024/01/24 02:14:24;;;;;;;;;;;;;;;16.79;45.25;99397.50;10323474;28;1951;-71
2024/01/24 02:19:21;;;;;;;;;;;;;;;16.72;44.92;99407.44;10324069;28;875;-71
2024/01/24 02:24:17;;;;;;;;;;;;;;;16.70;44.94;99432.13;10326806;28;854;-71
2024/01/24 02:29:12;;;;;;;;;;;;;;;16.67;44.95;99417.31;10332346;28;1289;-71
2024/01/24 02:34:08;;;;;;;;;;;;;;;16.65;44.88;99422.63;10331513;28;1911;-72
2024/01/24 02:39:04;;;;;;;;;;;;;;;16.60;44.73;99416.72;10330815;28;847;-71
2024/01/24 02:44:00;;;;;;;;;;;;;;;16.59;44.91;99438.69;10330609;28;765;-71
2024/01/24 02:48:56;;;;;;;;;;;;;;;16.55;44.76;99395.00;10330385;28;798;-71
2024/01/24 02:53:52;;;;;;;;;;;;;;;16.52;45.03;99381.16;10330256;28;1902;-71
2024/01/24 02:58:48;;;;;;;;;;;;;;;16.51;44.91;99385.56;10330055;28;982;-71
2024/01/24 03:03:44;;;;;;;;;;;;;;;16.47;44.92;99364.72;10330457;28;852;-72
2024/01/24 03:08:40;;;;;;;;;;;;;;;16.46;45.10;99377.00;10330272;28;830;-71
2024/01/24 03:13:35;;;;;;;;;;;;;;;16.44;45.06;99365.69;10330151;28;869;-71
2024/01/24 03:18:31;;;;;;;;;;;;;;;16.41;45.17;99353.53;10329842;28;1957;-72
2024/01/24 03:23:28;;;;;;;;;;;;;;;16.39;45.02;99333.47;10329159;28;855;-71
2024/01/24 03:28:24;;;;;;;;;;;;;;;16.37;45.29;99370.38;10329378;28;1145;-71
2024/01/24 03:33:20;;;;;;;;;;;;;;;16.35;45.00;99340.66;10328647;28;740;-71
2024/01/24 03:38:16;;;;;;;;;;;;;;;16.32;45.06;99321.50;10327542;28;1914;-71
2024/01/24 03:43:12;;;;;;;;;;;;;;;16.31;45.27;99304.03;10328271;28;865;-71
2024/01/24 03:48:08;;;;;;;;;;;;;;;16.28;45.13;99312.91;10328049;28;985;-71
2024/01/24 03:53:04;;;;;;;;;;;;;;;16.28;45.19;99312.91;10327878;28;909;-71
2024/01/24 03:57:59;;;;;;;;;;;;;;;16.27;45.23;99334.88;10327706;28;1893;-71
2024/01/24 04:02:55;;;;;;;;;;;;;;;16.25;45.38;99338.50;10327372;28;843;-71
2024/01/24 04:07:51;;;;;;;;;;;;;;;16.25;45.28;99343.75;10327925;28;830;-71
2024/01/24 04:12:47;;;;;;;;;;;;;;;16.23;45.26;99361.38;10327080;28;855;-71
2024/01/24 04:17:43;;;;;;;;;;;;;;;16.22;45.38;99386.81;10326750;28;1893;-71
2024/01/24 04:22:39;;;;;;;;;;;;;;;16.21;45.29;99403.50;10327301;28;940;-71
2024/01/24 04:27:36;;;;;;;;;;;;;;;16.20;45.26;99389.50;10327116;28;1368;-71
2024/01/24 04:32:32;;;;;;;;;;;;;;;16.19;45.42;99418.47;10326238;28;879;-71
2024/01/24 04:37:27;;;;;;;;;;;;;;;16.17;45.43;99410.66;10325554;28;1973;-72
2024/01/24 04:42:23;;;;;;;;;;;;;;;16.16;45.47;99392.31;10325558;28;814;-71
2024/01/24 04:47:19;;;;;;;;;;;;;;;16.14;45.38;99404.69;10325785;28;864;-71
2024/01/24 04:52:15;;;;;;;;;;;;;;;16.21;45.96;99443.78;10325899;28;802;-71
2024/01/24 04:57:11;;;;;;;;;;;;;;;16.21;45.71;99448.19;10325090;28;1889;-71
2024/01/24 05:02:08;;;;;;;;;;;;;;;16.22;45.39;99444.66;10325753;28;802;-72
2024/01/24 05:07:04;;;;;;;;;;;;;;;16.27;45.40;99437.44;10326040;28;842;-71
2024/01/24 05:12:00;;;;;;;;;;;;;;;16.30;45.35;99416.28;10325204;28;916;-71
2024/01/24 05:16:56;;;;;;;;;;;;;;;16.35;45.10;99431.88;10325275;28;2013;-72
2024/01/24 05:21:52;;;;;;;;;;;;;;;16.35;45.15;99430.09;10324978;28;858;-71
2024/01/24 05:26:47;;;;;;;;;;;;;;;16.39;45.21;99447.44;10324581;28;1401;-71
2024/01/24 05:31:43;;;;;;;;;;;;;;;16.43;45.17;99453.44;10324983;28;893;-71
2024/01/24 05:36:39;;;;;;;;;;;;;;;16.44;45.16;99478.81;10324891;28;1914;-82
2024/01/24 05:41:35;;;;;;;;;;;;;;;16.51;45.23;99461.00;10324793;28;854;-71
2024/01/24 05:46:31;;;;;;;;;;;;;;;16.55;45.17;99467.81;10325291;28;830;-70
2024/01/24 05:51:27;;;;;;;;;;;;;;;16.57;45.19;99481.78;10324790;28;830;-70
2024/01/24 05:56:23;;;;;;;;;;;;;;;16.64;45.25;99514.81;10324991;28;1894;-70
2024/01/24 06:01:19;;;;;;;;;;;;;;;16.63;45.00;99535.00;10330793;28;945;-70
2024/01/24 06:06:15;;;;;;;;;;;;;;;16.67;44.97;99556.78;10332905;28;870;-71
2024/01/24 06:11:14;;;;;;;;;;;;;;;16.70;45.14;99543.50;10331861;28;759;-71
2024/01/24 06:16:10;;;;;;;;;;;;;;;16.72;45.13;99533.78;10332138;28;1894;-70
2024/01/24 06:21:05;;;;;;;;;;;;;;;16.73;44.93;99526.72;10331723;28;791;-71
2024/01/24 06:26:02;;;;;;;;;;;;;;;16.78;44.97;99551.09;10331573;28;1255;-70
2024/01/24 06:30:58;;;;;;;;;;;;;;;16.80;44.80;99534.31;10331510;28;798;-71
2024/01/24 06:35:53;;;;;;;;;;;;;;;16.79;44.90;99506.31;10331496;28;1965;-71
2024/01/24 06:40:49;;;;;;;;;;;;;;;16.79;44.70;99530.00;10331818;28;850;-70
2024/01/24 06:45:45;;;;;;;;;;;;;;;16.83;44.63;99557.88;10330876;28;940;-70
2024/01/24 06:50:41;;;;;;;;;;;;;;;16.82;44.75;99571.09;10330455;28;794;-71
2024/01/24 06:55:37;;;;;;;;;;;;;;;16.85;44.61;99556.03;10330376;28;1958;-68
2024/01/24 07:00:33;;;;;;;;;;;;;;;16.86;44.80;99605.13;10330244;28;954;-68
2024/01/24 07:05:29;;;;;;;;;;;;;;;16.86;44.77;99605.13;10331029;28;818;-68
2024/01/24 07:10:24;;;;;;;;;;;;;;;16.86;44.65;99596.38;10329632;28;787;-68
2024/01/24 07:15:20;;;;;;;;;;;;;;;16.86;44.55;99634.09;10330048;28;1898;-67
2024/01/24 07:20:18;;;;;;;;;;;;;;;16.84;44.50;99633.28;10329914;28;857;-67
2024/01/24 07:25:14;;;;;;;;;;;;;;;16.83;44.57;99633.38;10329366;28;1310;-67
2024/01/24 07:30:09;;;;;;;;;;;;;;;16.83;44.71;99683.38;10328962;28;761;-68
2024/01/24 07:35:05;;;;;;;;;;;;;;;16.81;44.74;99662.38;10329256;28;1906;-69
2024/01/24 07:40:01;;;;;;;;;;;;;;;16.84;45.48;99642.97;10329689;28;960;-69
2024/01/24 07:44:57;;;;;;;;;;;;;;;16.82;45.33;99661.47;10328345;28;954;-69
2024/01/24 07:49:53;;;;;;;;;;;;;;;16.84;45.84;99680.69;10327513;28;854;-68
2024/01/24 07:54:49;;;;;;;;;;;;;;;16.84;45.96;99675.41;10319669;28;1969;-74
2024/01/24 07:59:45;;;;;;;;;;;;;;;16.82;45.70;99687.81;10327075;28;830;-69
2024/01/24 08:04:41;;;;;;;;;;;;;;;16.88;46.02;99706.91;10326905;28;936;-69
2024/01/24 08:09:37;;;;;;;;;;;;;;;16.89;46.08;99727.88;10327862;28;914;-69
2024/01/24 08:14:32;;;;;;;;;;;;;;;16.91;45.73;99717.31;10327855;28;1901;-69
2024/01/24 08:19:28;;;;;;;;;;;;;;;16.93;45.71;99736.53;10326253;28;1388;-69
2024/01/24 08:24:24;;;;;;;;;;;;;;;16.95;45.91;99754.00;10326234;28;789;-69
2024/01/24 08:29:21;;;;;;;;;;;;;;;16.99;45.90;99771.38;10327740;28;1148;-69
2024/01/24 08:34:17;;;;;;;;;;;;;;;17.00;45.90;99778.38;10326279;28;1973;-70
2024/01/24 08:39:13;;;;;;;;;;;;;;;17.01;45.92;99790.59;10326811;28;818;-69
2024/01/24 08:44:09;;;;;;;;;;;;;;;17.04;45.90;99793.09;10326105;28;850;-70
2024/01/24 08:49:05;;;;;;;;;;;;;;;17.06;45.78;99807.06;10326456;28;806;-70
2024/01/24 08:54:02;;;;;;;;;;;;;;;17.06;45.54;99814.13;10325688;28;1957;-76
2024/01/24 08:58:58;;;;;;;;;;;;;;;17.04;45.59;99827.34;10326337;28;860;-76
2024/01/24 09:03:54;;;;;;;;;;;;;;;17.05;45.36;99821.16;10324995;28;842;-71
2024/01/24 09:08:53;;;;;;;;;;;;;;;17.05;45.36;99822.94;10326195;28;861;-70
2024/01/24 09:13:49;;;;;;;;;;;;;;;17.04;45.01;99844.91;10325658;28;844;-70
2024/01/24 09:18:45;;;;;;;;;;;;;;;17.04;44.88;99866.84;10325802;28;1951;-70
2024/01/24 09:23:41;;;;;;;;;;;;;;;17.07;44.83;99863.22;10324633;28;905;-70
2024/01/24 09:28:36;;;;;;;;;;;;;;;17.03;44.94;99859.03;10325137;28;1411;-69
2024/01/24 09:33:32;;;;;;;;;;;;;;;17.02;45.05;99873.09;10326490;28;858;-70
2024/01/24 09:38:28;;;;;;;;;;;;;;;17.00;45.03;99880.19;10333762;28;1973;-70
2024/01/24 09:43:24;;;;;;;;;;;;;;;17.01;44.84;99916.16;10332290;28;996;-70
2024/01/24 09:48:20;;;;;;;;;;;;;;;17.01;44.87;99898.56;10332802;28;869;-68
2024/01/24 09:53:19;;;;;;;;;;;;;;;17.01;44.70;99911.72;10332643;28;814;-69
2024/01/24 09:58:15;;;;;;;;;;;;;;;17.01;44.95;99903.84;10332894;28;1957;-70
2024/01/24 10:03:11;;;;;;;;;;;;;;;17.04;45.16;99930.03;10332218;28;872;-70
2024/01/24 10:08:08;;;;;;;;;;;;;;;17.06;44.75;99948.44;10332589;28;822;-68
2024/01/24 10:13:04;;;;;;;;;;;;;;;17.05;44.97;99962.50;10331690;28;913;-68
2024/01/24 10:18:00;;;;;;;;;;;;;;;17.05;44.54;99963.34;10331676;28;1953;-68
2024/01/24 10:22:56;;;;;;;;;;;;;;;17.06;44.67;99953.69;10331853;28;798;-68
2024/01/24 10:27:52;;;;;;;;;;;;;;;17.07;44.86;99952.78;10329799;28;1250;-68
2024/01/24 10:32:48;;;;;;;;;;;;;;;17.08;44.60;99978.19;10329344;28;792;-68
2024/01/24 10:37:44;;;;;;;;;;;;;;;17.09;44.54;99977.28;10329155;28;1914;-69
2024/01/24 10:42:39;;;;;;;;;;;;;;;17.09;44.79;99970.25;10328882;28;834;-68
2024/01/24 10:47:35;;;;;;;;;;;;;;;17.13;44.95;99975.38;10327460;28;877;-69
2024/01/24 10:52:31;;;;;;;;;;;;;;;17.11;45.13;99964.94;10328253;28;771;-69
2024/01/24 10:57:27;;;;;;;;;;;;;;;17.15;45.11;99979.69;10327947;28;1965;-69
2024/01/24 11:02:23;;;;;;;;;;;;;;;17.15;45.25;99987.59;10327215;28;893;-69
2024/01/24 11:07:19;;;;;;;;;;;;;;;17.16;45.19;99997.22;10327943;28;867;-69
2024/01/24 11:12:15;;;;;;;;;;;;;;;17.16;45.15;99984.06;10327491;28;874;-70
2024/01/24 11:17:11;;;;;;;;;;;;;;;17.17;44.95;99990.19;10326667;28;1953;-70
2024/01/24 11:22:07;;;;;;;;;;;;;;;17.15;44.88;99990.22;10326572;28;1225;-69
2024/01/24 11:27:02;;;;;;;;;;;;;;;17.16;44.92;100015.66;10289965;28;1094817;-71
2024/01/24 11:31:58;;;;;;;;;;;;;;;17.20;44.87;100019.88;10328818;28;922;-71
2024/01/24 11:36:54;;;;;;;;;;;;;;;17.18;44.84;100034.03;10328021;28;1914;-75
2024/01/24 11:41:50;;;;;;;;;;;;;;;17.13;44.91;100028.06;10329189;28;890;-76
2024/01/24 11:46:46;;;;;;;;;;;;;;;17.13;44.89;100042.09;10329276;28;838;-82
2024/01/24 11:51:42;;;;;;;;;;;;;;;17.12;44.67;100036.88;10328667;28;882;-82
2024/01/24 11:56:38;;;;;;;;;;;;;;;17.09;44.68;100027.31;10327572;28;1959;-76
2024/01/24 12:01:34;;;;;;;;;;;;;;;17.08;44.43;100050.19;10327015;28;1003;-76
2024/01/24 12:06:31;;;;;;;;;;;;;;;17.09;44.38;100058.94;10327412;28;774;-76
2024/01/24 12:11:27;;;;;;;;;;;;;;;17.07;44.35;100084.47;10328373;28;851;-76
2024/01/24 12:16:25;;;;;;;;;;;;;;;17.06;44.17;100093.28;10327223;28;1968;-76
2024/01/24 12:21:21;;;;;;;;;;;;;;;17.05;44.31;100110.84;10326259;28;1187;-76
2024/01/24 12:26:17;;;;;;;;;;;;;;;17.07;44.24;100110.78;10326616;28;1432;-76
2024/01/24 12:31:12;;;;;;;;;;;;;;;17.05;44.04;100121.38;10326527;28;915;-76
2024/01/24 12:36:08;;;;;;;;;;;;;;;17.04;44.19;100116.16;10325714;28;1910;-75
2024/01/24 12:41:04;;;;;;;;;;;;;;;17.05;44.13;100141.56;10326238;28;870;-75
2024/01/24 12:46:00;;;;;;;;;;;;;;;17.05;44.12;100147.69;10326323;28;787;-74
2024/01/24 12:50:56;;;;;;;;;;;;;;;17.05;44.01;100152.97;10327117;28;854;-74
2024/01/24 12:55:52;;;;;;;;;;;;;;;17.05;43.95;100160.00;10326346;28;1901;-75
2024/01/24 13:00:48;;;;;;;;;;;;;;;17.03;44.03;100167.97;10325649;28;929;-75
2024/01/24 13:05:44;;;;;;;;;;;;;;;17.04;44.00;100166.22;10325683;28;909;-74
2024/01/24 13:10:43;;;;;;;;;;;;;;;17.03;43.89;100172.41;10325375;28;791;-74
2024/01/24 13:15:38;;;;;;;;;;;;;;;17.03;43.96;100167.97;10325132;28;1893;-74
2024/01/24 13:20:34;;;;;;;;;;;;;;;17.03;43.67;100181.16;10325199;28;845;-74
2024/01/24 13:25:30;;;;;;;;;;;;;;;17.03;43.76;100177.66;10325010;28;1192;-74
2024/01/24 13:30:26;;;;;;;;;;;;;;;17.03;43.84;100182.94;10325106;28;893;-74
2024/01/24 13:35:22;;;;;;;;;;;;;;;17.02;43.76;100197.84;10325473;28;1971;-75
2024/01/24 13:40:18;;;;;;;;;;;;;;;17.03;43.57;100214.53;10325628;28;916;-74
2024/01/24 13:45:14;;;;;;;;;;;;;;;17.02;43.71;100221.56;10324829;28;972;-75
2024/01/24 13:50:11;;;;;;;;;;;;;;;17.02;43.57;100247.88;10324635;28;842;-75
2024/01/24 13:55:07;;;;;;;;;;;;;;;17.01;43.70;100240.91;10324566;28;1894;-74
2024/01/24 14:00:03;;;;;;;;;;;;;;;17.03;43.52;100256.69;10324541;28;783;-73
2024/01/24 14:04:59;;;;;;;;;;;;;;;17.01;43.67;100261.13;10324742;28;921;-74
2024/01/24 14:09:55;;;;;;;;;;;;;;;17.02;43.64;100236.50;10324150;28;893;-74
2024/01/24 14:14:51;;;;;;;;;;;;;;;17.02;43.46;100262.84;10323207;28;1898;-74
2024/01/24 14:19:47;;;;;;;;;;;;;;;17.02;43.61;100276.00;10326160;28;885;-74
2024/01/24 14:24:42;;;;;;;;;;;;;;;17.03;43.57;100291.75;10331004;28;1171;-73
2024/01/24 14:29:38;;;;;;;;;;;;;;;17.02;43.44;100289.16;10330929;28;881;-74
2024/01/24 14:34:34;;;;;;;;;;;;;;;17.01;43.60;100298.84;10331377;28;1922;-74
2024/01/24 14:39:30;;;;;;;;;;;;;;;17.01;43.52;100308.53;10330031;28;870;-74
2024/01/24 14:44:26;;;;;;;;;;;;;;;16.98;43.39;100316.53;10329904;28;940;-74
2024/01/24 14:49:24;;;;;;;;;;;;;;;16.97;43.53;100330.59;10330269;28;822;-74
2024/01/24 14:54:20;;;;;;;;;;;;;;;16.93;43.57;100350.88;10330003;28;1898;-74
2024/01/24 14:59:16;;;;;;;;;;;;;;;16.95;43.26;100359.63;10329947;28;771;-69
2024/01/24 15:04:12;;;;;;;;;;;;;;;17.01;43.85;100362.06;10329786;28;902;-68
2024/01/24 15:09:08;;;;;;;;;;;;;;;17.05;43.85;100374.19;10329596;28;779;-69
2024/01/24 15:14:04;;;;;;;;;;;;;;;17.07;43.97;100382.94;10329415;28;818;-69
2024/01/24 15:18:59;;;;;;;;;;;;;;;17.08;43.96;100375.88;10329192;28;1890;-69
2024/01/24 15:23:55;;;;;;;;;;;;;;;17.12;44.14;100388.06;10328395;28;1245;-68
2024/01/24 15:28:51;;;;;;;;;;;;;;;17.12;44.18;100380.16;10328560;28;1312;-69
2024/01/24 15:33:47;;;;;;;;;;;;;;;17.13;44.05;100392.41;10327959;28;877;-68
2024/01/24 15:38:49;;;;;;;;;;;;;;;17.18;44.11;100398.41;10327749;28;1977;-67
2024/01/24 15:43:45;;;;;;;;;;;;;;;17.18;44.02;100410.72;10328235;28;1079;-68
2024/01/24 15:48:41;;;;;;;;;;;;;;;17.19;44.26;100413.31;10328888;28;882;-69
2024/01/24 15:53:37;;;;;;;;;;;;;;;17.21;44.19;100418.53;10327798;28;841;-69
2024/01/24 15:58:33;;;;;;;;;;;;;;;17.25;44.00;100439.47;10328302;28;1981;-69
2024/01/24 16:03:33;;;;;;;;;;;;;;;17.25;44.10;100450.00;10328122;28;812;-69
2024/01/24 16:08:29;;;;;;;;;;;;;;;17.28;43.94;100449.91;10327812;28;912;-70
2024/01/24 16:13:25;;;;;;;;;;;;;;;17.28;43.96;100468.34;10327009;28;799;-71
2024/01/24 16:18:21;;;;;;;;;;;;;;;17.29;43.92;100469.22;10326728;28;1897;-71
2024/01/24 16:23:17;;;;;;;;;;;;;;;17.31;44.11;100476.16;10326641;28;934;-71
2024/01/24 16:28:14;;;;;;;;;;;;;;;17.32;44.07;100477.06;10326620;28;1215;-74
2024/01/24 16:33:10;;;;;;;;;;;;;;;17.34;44.15;100485.75;10326201;28;965;-78
2024/01/24 16:38:08;;;;;;;;;;;;;;;17.34;44.20;100493.66;10326559;28;1976;-74
2024/01/24 16:43:03;;;;;;;;;;;;;;;17.35;44.18;100502.44;10326189;28;852;-73
2024/01/24 16:47:59;;;;;;;;;;;;;;;17.36;44.00;100504.16;10325149;28;885;-73
2024/01/24 16:52:55;;;;;;;;;;;;;;;17.36;44.02;100506.78;10326440;28;831;-73
2024/01/24 16:57:51;;;;;;;;;;;;;;;17.35;43.82;100513.84;10325483;28;1961;-73
2024/01/24 17:02:47;;;;;;;;;;;;;;;17.36;44.05;100519.97;10326002;28;834;-72
2024/01/24 17:07:43;;;;;;;;;;;;;;;17.37;43.96;100522.56;10325271;28;810;-70
2024/01/24 17:12:39;;;;;;;;;;;;;;;17.39;43.79;100530.41;10325148;28;948;-70
2024/01/24 17:17:34;;;;;;;;;;;;;;;17.40;43.82;100534.81;10324992;28;1966;-69
2024/01/24 17:22:30;;;;;;;;;;;;;;;17.41;43.83;100544.41;10324969;28;846;-68
2024/01/24 17:27:26;;;;;;;;;;;;;;;17.42;44.07;100554.94;10325614;28;1112;-68
2024/01/24 17:32:22;;;;;;;;;;;;;;;17.42;43.95;100557.56;10324184;28;882;-70
2024/01/24 17:37:18;;;;;;;;;;;;;;;17.44;44.07;100549.59;10325594;28;1979;-69
2024/01/24 17:42:14;;;;;;;;;;;;;;;17.43;44.23;100548.75;10325164;28;870;-69
2024/01/24 17:47:10;;;;;;;;;;;;;;;17.43;43.98;100551.38;10325097;28;791;-69
2024/01/24 17:52:06;;;;;;;;;;;;;;;17.45;44.12;100564.53;10324539;28;861;-69
2024/01/24 17:57:02;;;;;;;;;;;;;;;17.47;43.98;100567.97;10331030;28;1948;-69
2024/01/24 18:01:58;;;;;;;;;;;;;;;17.47;43.88;100578.50;10332132;28;766;-69
2024/01/24 18:06:55;;;;;;;;;;;;;;;17.48;44.07;100583.75;10331916;28;909;-69
2024/01/24 18:11:51;;;;;;;;;;;;;;;17.49;44.06;100598.63;10332548;28;827;-69
2024/01/24 18:16:48;;;;;;;;;;;;;;;17.47;44.02;100612.75;10331439;28;1964;-69
2024/01/24 18:21:44;;;;;;;;;;;;;;;17.50;43.81;100608.28;10331403;28;786;-69
2024/01/24 18:26:40;;;;;;;;;;;;;;;17.51;44.02;100611.78;10331286;28;1506;-68
2024/01/24 18:31:36;;;;;;;;;;;;;;;17.49;44.00;100622.34;10330340;28;965;-69
2024/01/24 18:36:32;;;;;;;;;;;;;;;17.49;43.75;100609.16;10330158;28;1914;-69
2024/01/24 18:41:28;;;;;;;;;;;;;;;17.51;43.83;100612.63;10330058;28;893;-69
2024/01/24 18:46:25;;;;;;;;;;;;;;;17.51;43.70;100617.91;10330436;28;775;-69
2024/01/24 18:51:21;;;;;;;;;;;;;;;17.51;43.67;100622.31;10330262;28;950;-69
2024/01/24 18:56:17;;;;;;;;;;;;;;;17.54;43.71;100627.50;10330431;28;1898;-69
2024/01/24 19:01:13;;;;;;;;;;;;;;;17.52;43.61;100605.59;10329845;28;1005;-69
2024/01/24 19:06:09;;;;;;;;;;;;;;;17.52;43.82;100619.63;10329410;28;923;-70
2024/01/24 19:11:05;;;;;;;;;;;;;;;17.55;43.80;100612.53;10330180;28;1187;-71
2024/01/24 19:16:01;;;;;;;;;;;;;;;17.57;43.71;100619.50;10329923;28;1894;-71
2024/01/24 19:20:56;;;;;;;;;;;;;;;17.58;43.74;100610.72;10329224;28;811;-71
2024/01/24 19:25:52;;;;;;;;;;;;;;;17.60;43.94;100613.28;10328990;28;1161;-71
2024/01/24 19:30:48;;;;;;;;;;;;;;;17.59;43.79;100609.78;10328766;28;958;-74
2024/01/24 19:35:44;;;;;;;;;;;;;;;17.60;43.73;100611.50;10329133;28;1913;-71
2024/01/24 19:40:41;;;;;;;;;;;;;;;17.61;43.96;100599.22;10328502;28;871;-71
2024/01/24 19:45:37;;;;;;;;;;;;;;;17.61;43.73;100600.06;10328242;28;923;-71
2024/01/24 19:50:32;;;;;;;;;;;;;;;17.62;43.66;100593.88;10329211;28;882;-71
2024/01/24 19:55:29;;;;;;;;;;;;;;;17.63;43.63;100582.44;10327714;28;1886;-72
2024/01/24 20:00:25;;;;;;;;;;;;;;;17.63;43.81;100593.00;10328011;28;972;-71
2024/01/24 20:05:21;;;;;;;;;;;;;;;17.64;43.57;100591.22;10327940;28;826;-71
2024/01/24 20:10:18;;;;;;;;;;;;;;;17.64;43.78;100589.44;10327235;28;769;-71
2024/01/24 20:15:14;;;;;;;;;;;;;;;17.64;43.75;100592.06;10326879;28;1895;-71
2024/01/24 20:20:10;;;;;;;;;;;;;;;17.65;43.54;100590.28;10326508;28;897;-71
2024/01/24 20:25:05;;;;;;;;;;;;;;;17.65;43.49;100599.06;10327053;28;1414;-69
2024/01/24 20:30:01;;;;;;;;;;;;;;;17.65;43.76;100601.69;10326387;28;908;-71
2024/01/24 20:34:57;;;;;;;;;;;;;;;17.64;43.76;100613.16;10326747;28;1914;-77
2024/01/24 20:39:53;;;;;;;;;;;;;;;17.67;43.69;100614.84;10326694;28;790;-77
2024/01/24 20:44:49;;;;;;;;;;;;;;;17.64;43.79;100609.66;10326485;28;872;-72
2024/01/24 20:49:45;;;;;;;;;;;;;;;17.60;43.99;100618.56;10325811;28;774;-80
2024/01/24 20:54:41;;;;;;;;;;;;;;;17.56;43.82;100625.69;10325650;28;1956;-81
2024/01/24 20:59:37;;;;;;;;;;;;;;;17.53;43.78;100621.38;10326223;28;894;-80
2024/01/24 21:04:33;;;;;;;;;;;;;;;17.53;43.87;100623.16;10326156;28;790;-77
2024/01/24 21:09:29;;;;;;;;;;;;;;;17.49;43.83;100619.72;10326123;28;974;-76
2024/01/24 21:14:25;;;;;;;;;;;;;;;17.49;43.75;100629.41;10326425;28;1959;-75
2024/01/24 21:19:23;;;;;;;;;;;;;;;17.48;43.80;100635.59;10324772;28;866;-75
2024/01/24 21:24:19;;;;;;;;;;;;;;;17.47;43.72;100639.13;10324945;28;1075;-75
2024/01/24 21:29:15;;;;;;;;;;;;;;;17.45;43.87;100640.97;10328055;28;1235;-75
2024/01/24 21:34:11;;;;;;;;;;;;;;;17.44;43.51;100650.59;10334262;28;958;-76
2024/01/24 21:39:07;;;;;;;;;;;;;;;17.43;43.76;100648.03;10333282;28;1973;-76
2024/01/24 21:44:03;;;;;;;;;;;;;;;17.43;43.55;100648.03;10333779;28;869;-77
2024/01/24 21:48:59;;;;;;;;;;;;;;;17.41;43.55;100650.69;10333056;28;924;-77
2024/01/24 21:53:55;;;;;;;;;;;;;;;17.43;43.65;100653.31;10332842;28;866;-77
2024/01/24 21:58:54;;;;;;;;;;;;;;;17.42;43.61;100648.91;10333231;28;1906;-78
2024/01/24 22:03:50;;;;;;;;;;;;;;;17.40;43.53;100663.94;10330279;28;1121;-77
2024/01/24 22:08:47;;;;;;;;;;;;;;;17.38;43.51;100657.84;10331823;28;863;-78
2024/01/24 22:13:43;;;;;;;;;;;;;;;17.36;43.64;100663.13;10331368;28;1091;-78
2024/01/24 22:18:39;;;;;;;;;;;;;;;17.34;43.65;100671.97;10331219;28;1957;-87
2024/01/24 22:23:35;;;;;;;;;;;;;;;17.33;43.45;100667.63;10332188;28;873;-87
2024/01/24 22:28:30;;;;;;;;;;;;;;;17.31;43.70;100667.66;10331868;28;1148;-89
2024/01/24 22:33:26;;;;;;;;;;;;;;;17.31;43.66;100675.56;10330666;28;1047;-93
2024/01/24 22:38:22;;;;;;;;;;;;;;;17.30;43.57;100669.44;10331080;28;1914;-83
2024/01/24 22:43:18;;;;;;;;;;;;;;;17.30;43.50;100671.22;10330933;28;833;-83
2024/01/24 22:48:14;;;;;;;;;;;;;;;17.29;43.46;100669.47;10331278;28;909;-75
2024/01/24 22:53:10;;;;;;;;;;;;;;;17.27;43.58;100658.97;10330510;28;850;-75
2024/01/24 22:58:06;;;;;;;;;;;;;;;17.28;43.70;100657.22;10330475;28;1953;-75
2024/01/24 23:03:02;;;;;;;;;;;;;;;17.27;43.55;100666.03;10330219;28;787;-75
2024/01/24 23:07:58;;;;;;;;;;;;;;;17.26;43.37;100659.00;10330697;28;1042;-75
2024/01/24 23:12:54;;;;;;;;;;;;;;;17.24;43.56;100664.34;10329784;28;903;-75
2024/01/24 23:17:50;;;;;;;;;;;;;;;17.23;43.61;100673.13;10329574;28;1890;-75
2024/01/24 23:22:46;;;;;;;;;;;;;;;17.23;43.51;100670.50;10330095;28;903;-75
2024/01/24 23:27:42;;;;;;;;;;;;;;;17.23;43.68;100670.50;10328683;28;1278;-75
2024/01/24 23:32:38;;;;;;;;;;;;;;;17.23;43.39;100686.31;10329021;28;927;-76
2024/01/24 23:37:33;;;;;;;;;;;;;;;17.21;43.66;100690.78;10329424;28;1910;-75
2024/01/24 23:42:29;;;;;;;;;;;;;;;17.20;43.50;100686.38;10328109;28;944;-75
2024/01/24 23:47:25;;;;;;;;;;;;;;;17.20;43.52;100675.84;10328487;28;810;-75
2024/01/24 23:52:21;;;;;;;;;;;;;;;17.20;43.62;100673.22;10327216;28;850;-76
2024/01/24 23:57:17;;;;;;;;;;;;;;;17.19;43.40;100668.88;10327559;28;1955;-75
